Time;durP1;ratioP1;P1;durP2;ratioP2;P2;SDS_P1;SDS_P2;PMS_P1;PMS_P2;Temp;Humidity;BMP_temperature;BMP_pressure;BME280_temperature;BME280_humidity;BME280_pressure;Samples;Min_cycle;Max_cycle;Signal;HPM_P1;HPM_P2
2021/12/11 00:02:18;;;;;;;42.90;29.15;;;;;;;3.59;81.30;100345.13;3568901;40;20079;-66
2021/12/11 00:04:49;;;;;;;44.42;29.90;;;;;;;3.31;81.10;100301.06;3574968;40;20060;-65
2021/12/11 00:07:19;;;;;;;47.33;29.42;;;;;;;3.48;80.98;100338.41;3568361;40;20053;-66
2021/12/11 00:09:55;;;;;;;46.10;29.25;;;;;;;3.27;80.80;100310.09;3569182;40;20695;-66
2021/12/11 00:12:34;;;;;;;47.03;29.17;;;;;;;3.44;80.62;100365.19;3568375;40;20307;-67
2021/12/11 00:15:20;;;;;;;45.63;29.33;;;;;;;3.39;80.50;100360.03;3575036;40;20056;-64
2021/12/11 00:17:46;;;;;;;48.28;29.20;;;;;;;3.36;81.14;100368.16;3573156;40;20069;-64
2021/12/11 00:20:26;;;;;;;45.92;30.02;;;;;;;3.35;80.68;100378.84;3568973;40;20060;-67
2021/12/11 00:22:53;;;;;;;48.15;29.92;;;;;;;3.33;80.80;100386.88;3568194;40;20129;-65
2021/12/11 00:25:20;;;;;;;47.28;29.92;;;;;;;3.27;81.85;100381.81;3570243;40;20057;-65
2021/12/11 00:27:51;;;;;;;47.63;30.30;;;;;;;3.27;81.28;100389.78;3570464;40;20139;-65
2021/12/11 00:30:27;;;;;;;50.33;31.38;;;;;;;3.26;81.38;100391.53;3566637;40;20053;-65
2021/12/11 00:33:23;;;;;;;50.28;29.88;;;;;;;3.24;81.42;100395.19;3569445;40;20097;-66
2021/12/11 00:35:52;;;;;;;48.08;31.00;;;;;;;3.17;81.08;100391.91;3566098;40;20134;-65
2021/12/11 00:38:34;;;;;;;50.95;32.65;;;;;;;3.01;81.44;100369.50;3566021;40;20084;-66
2021/12/11 00:41:07;;;;;;;51.42;32.25;;;;;;;3.21;80.83;100408.59;3566182;40;20104;-64
2021/12/11 00:43:35;;;;;;;;;;;;;;;3.17;81.71;100412.28;3568506;40;20046;-65
2021/12/11 00:46:08;;;;;;;52.35;30.20;;;;;;;3.17;81.42;100418.47;3575955;40;19935;-65
2021/12/11 00:48:35;;;;;;;50.13;31.20;;;;;;;3.16;81.46;100426.47;3566146;40;21284;-64
2021/12/11 00:51:12;;;;;;;49.90;31.25;;;;;;;3.14;81.17;100428.31;3565552;40;20167;-65
2021/12/11 00:53:54;;;;;;;48.03;30.65;;;;;;;3.13;81.50;100431.91;3566100;40;20045;-66
2021/12/11 00:56:25;;;;;;;50.75;30.83;;;;;;;3.11;80.76;100428.44;3569475;40;20387;-65
2021/12/11 00:58:55;;;;;;;47.00;29.88;;;;;;;2.51;81.49;100341.28;3565728;40;20057;-65
2021/12/11 01:01:36;;;;;;;50.38;31.58;;;;;;;3.02;80.66;100441.16;3567376;40;20049;-64
2021/12/11 01:04:20;;;;;;;50.08;29.48;;;;;;;3.01;81.09;100450.03;3568256;40;20053;-66
2021/12/11 01:06:59;;;;;;;44.75;29.83;;;;;;;2.78;80.86;100416.34;3566075;40;20404;-66
2021/12/11 01:09:47;;;;;;;50.33;30.65;;;;;;;2.95;81.23;100463.53;3568140;40;20053;-65
2021/12/11 01:12:35;;;;;;;47.45;29.17;;;;;;;2.82;80.56;100448.94;3568800;40;20045;-65
2021/12/11 01:15:28;;;;;;;44.92;28.10;;;;;;;2.83;80.17;100466.63;3566831;40;20372;-66
2021/12/11 01:21:01;;;;;;;47.65;28.25;;;;;;;2.74;80.32;100478.44;3567262;40;20064;-64
2021/12/11 01:23:47;;;;;;;51.05;29.83;;;;;;;2.72;81.58;100479.41;3570420;40;20056;-65
2021/12/11 01:26:22;;;;;;;45.55;28.08;;;;;;;2.70;81.55;100484.78;3566067;40;20053;-66
2021/12/11 01:28:52;;;;;;;47.15;29.27;;;;;;;2.69;80.92;100490.13;3566454;40;20084;-66
2021/12/11 01:31:22;;;;;;;53.45;30.05;;;;;;;2.67;81.03;100498.16;3564649;40;20399;-65
2021/12/11 01:33:49;;;;;;;52.75;31.55;;;;;;;2.67;81.71;100497.28;3570494;40;20060;-66
2021/12/11 01:36:15;;;;;;;44.55;29.35;;;;;;;2.65;80.79;100502.63;3571300;40;20398;-65
2021/12/11 01:38:42;;;;;;;48.10;30.20;;;;;;;2.64;81.11;100510.66;3568544;40;20064;-65
2021/12/11 01:41:19;;;;;;;56.03;32.30;;;;;;;2.50;81.07;100498.72;3567310;40;20395;-64
2021/12/11 01:44:02;;;;;;;50.03;30.75;;;;;;;2.63;80.77;100527.47;3571320;40;20083;-66
2021/12/11 01:46:28;;;;;;;49.33;29.30;;;;;;;2.65;81.58;100536.28;3567893;40;20183;-64
2021/12/11 01:49:04;;;;;;;47.42;27.88;;;;;;;2.62;81.19;100539.03;3574341;40;20053;-65
2021/12/11 01:51:40;;;;;;;45.25;27.50;;;;;;;2.61;80.64;100550.56;3570978;40;20126;-65
2021/12/11 01:54:22;;;;;;;45.58;29.52;;;;;;;2.59;80.64;100558.56;3568603;40;20053;-66
2021/12/11 01:56:59;;;;;;;48.08;28.58;;;;;;;2.57;79.83;100571.03;3570595;40;20386;-65
2021/12/11 01:59:37;;;;;;;44.90;28.40;;;;;;;2.56;80.20;100580.75;3569946;40;20037;-65
2021/12/11 02:02:28;;;;;;;44.30;26.23;;;;;;;2.56;80.18;100591.38;3569613;40;20114;-64
2021/12/11 02:04:55;;;;;;;46.28;28.08;;;;;;;2.56;80.76;100599.31;3565904;40;20065;-66
2021/12/11 02:07:39;;;;;;;46.50;29.80;;;;;;;2.58;80.44;100604.59;3570076;40;20064;-66
2021/12/11 02:10:17;;;;;;;43.20;27.50;;;;;;;2.62;80.99;100594.75;3569408;40;20089;-65
2021/12/11 02:12:44;;;;;;;47.58;28.33;;;;;;;2.66;81.35;100593.72;3572215;40;20074;-66
2021/12/11 02:15:25;;;;;;;48.10;30.45;;;;;;;2.67;81.00;100598.13;3576245;40;20123;-65
2021/12/11 02:18:08;;;;;;;51.17;29.63;;;;;;;2.67;81.54;100593.69;3571376;40;20081;-65
2021/12/11 02:20:52;;;;;;;48.10;28.95;;;;;;;2.69;80.70;100609.53;3567336;40;20064;-64
2021/12/11 02:23:18;;;;;;;;;;;;;;;2.69;81.15;100609.53;3571784;40;20045;-66
2021/12/11 02:25:51;;;;;;;47.15;27.25;;;;;;;2.66;81.55;100612.28;3571468;40;19943;-65
2021/12/11 02:28:30;;;;;;;50.88;29.38;;;;;;;2.66;80.72;100614.94;3570968;40;20074;-64
2021/12/11 02:31:09;;;;;;;49.70;30.30;;;;;;;2.65;81.52;100629.16;3572704;40;20474;-65
2021/12/11 02:33:52;;;;;;;50.83;30.60;;;;;;;2.65;81.58;100627.34;3571765;40;20092;-65
2021/12/11 02:36:24;;;;;;;54.17;30.88;;;;;;;2.66;81.94;100637.03;3566692;40;20064;-65
2021/12/11 02:38:58;;;;;;;49.80;29.98;;;;;;;2.71;82.40;100645.72;3568954;40;20052;-67
2021/12/11 02:41:51;;;;;;;46.60;29.23;;;;;;;2.74;81.48;100655.38;3566930;40;20088;-65
2021/12/11 02:44:53;;;;;;;45.30;28.27;;;;;;;2.76;81.56;100649.13;3567749;40;20053;-63
2021/12/11 02:47:32;;;;;;;46.75;29.15;;;;;;;2.78;80.91;100646.41;3568923;40;20057;-65
2021/12/11 02:50:11;;;;;;;45.08;28.15;;;;;;;2.80;80.82;100652.53;3566075;40;20049;-67
2021/12/11 02:53:19;;;;;;;48.50;28.75;;;;;;;2.78;81.63;100655.22;3568115;40;20056;-66
2021/12/11 02:55:56;;;;;;;46.22;27.33;;;;;;;2.79;81.31;100656.09;3568980;40;20324;-65
2021/12/11 02:58:32;;;;;;;47.80;28.50;;;;;;;2.74;81.03;100660.69;3568060;40;20061;-66
2021/12/11 03:01:25;;;;;;;44.10;28.20;;;;;;;2.74;80.91;100674.84;3568857;40;20057;-64
2021/12/11 03:04:12;;;;;;;48.50;29.05;;;;;;;2.75;81.60;100675.69;3568448;40;20306;-66
2021/12/11 03:06:42;;;;;;;47.65;29.90;;;;;;;2.62;80.67;100658.44;3571673;40;20056;-66
2021/12/11 03:09:14;;;;;;;45.03;28.30;;;;;;;2.76;81.39;100682.75;3567924;40;20063;-66
2021/12/11 03:11:40;;;;;;;46.63;29.02;;;;;;;2.79;80.48;100690.59;3566970;40;20392;-65
2021/12/11 03:14:12;;;;;;;45.78;29.13;;;;;;;2.77;81.14;100690.66;3568190;40;20057;-64
2021/12/11 03:16:41;;;;;;;46.05;28.08;;;;;;;2.78;81.10;100683.56;3578024;40;20041;-65
2021/12/11 03:19:13;;;;;;;44.47;27.60;;;;;;;2.77;80.95;100695.09;3567458;40;20346;-65
2021/12/11 03:21:39;;;;;;;48.05;29.05;;;;;;;2.79;80.56;100698.56;3612655;22;20044;-62
2021/12/11 03:24:08;;;;;;;46.40;28.25;;;;;;;2.80;81.36;100695.00;3581405;40;20483;-63
2021/12/11 03:26:38;;;;;;;47.83;29.27;;;;;;;2.64;80.67;100678.69;3583275;39;20062;-62
2021/12/11 03:29:06;;;;;;;48.25;30.40;;;;;;;2.83;81.10;100709.97;3577727;40;20045;-62
2021/12/11 03:31:36;;;;;;;46.90;29.17;;;;;;;2.86;81.35;100708.09;3576477;40;20041;-62
2021/12/11 03:34:04;;;;;;;48.17;28.63;;;;;;;2.88;81.31;100708.88;3580207;40;20171;-62
2021/12/11 03:36:32;;;;;;;44.30;28.33;;;;;;;2.89;80.86;100721.25;3584432;40;20063;-62
2021/12/11 03:39:07;;;;;;;46.08;28.98;;;;;;;2.92;81.46;100713.19;3581400;40;20370;-63
2021/12/11 03:41:33;;;;;;;47.15;29.50;;;;;;;2.98;82.08;100715.66;3579066;40;20103;-63
2021/12/11 03:43:59;;;;;;;49.95;29.90;;;;;;;3.04;81.38;100714.56;3580130;40;20107;-62
2021/12/11 03:46:25;;;;;;;44.47;27.92;;;;;;;3.08;81.75;100716.22;3581212;40;20102;-62
2021/12/11 03:48:58;;;;;;;45.55;28.90;;;;;;;3.13;81.23;100724.03;3582344;40;20051;-62
2021/12/11 03:51:33;;;;;;;42.97;28.27;;;;;;;3.18;82.11;100728.28;3577814;40;20052;-62
2021/12/11 03:54:07;;;;;;;47.33;28.80;;;;;;;3.21;80.90;100724.66;3580845;40;20274;-62
2021/12/11 03:56:37;;;;;;;45.13;28.27;;;;;;;3.22;81.76;100724.59;3581050;40;20060;-63
2021/12/11 03:59:09;;;;;;;48.20;28.85;;;;;;;3.24;81.38;100733.41;3578199;40;20119;-63
2021/12/11 04:01:43;;;;;;;44.90;28.50;;;;;;;3.25;81.96;100737.78;3576411;40;20137;-63
2021/12/11 04:04:26;;;;;;;47.42;28.75;;;;;;;2.92;81.67;100678.69;3584758;40;20045;-63
2021/12/11 04:06:54;;;;;;;46.77;27.90;;;;;;;3.30;81.75;100737.63;3578485;40;20052;-63
2021/12/11 04:09:20;;;;;;;48.55;29.17;;;;;;;3.35;81.66;100741.00;3578696;40;20064;-62
2021/12/11 04:11:50;;;;;;;46.63;28.67;;;;;;;3.36;81.96;100732.13;3575903;40;20366;-62
2021/12/11 04:14:24;;;;;;;48.42;29.55;;;;;;;3.39;82.14;100742.63;3574149;40;20056;-63
2021/12/11 04:16:52;;;;;;;;;;;;;;;3.40;81.57;100743.50;3577931;40;20081;-62
2021/12/11 04:19:18;;;;;;;51.90;29.92;;;;;;;3.46;82.23;100753.94;3575155;40;20168;-62
2021/12/11 04:21:46;;;;;;;50.83;28.90;;;;;;;3.48;81.93;100763.56;3581615;40;20118;-62
2021/12/11 04:24:23;;;;;;;48.03;29.30;;;;;;;3.53;81.63;100762.56;3578300;40;20059;-63
2021/12/11 04:26:50;;;;;;;49.47;30.05;;;;;;;3.57;81.54;100774.81;3577277;40;20041;-63
2021/12/11 04:29:17;;;;;;;45.33;27.67;;;;;;;3.54;82.22;100762.50;3577735;40;20048;-63
2021/12/11 04:31:46;;;;;;;47.65;28.75;;;;;;;3.61;81.52;100772.00;3579129;40;20045;-63
2021/12/11 04:34:17;;;;;;;47.92;28.02;;;;;;;3.63;81.60;100775.47;3578742;40;20040;-63
2021/12/11 04:36:52;;;;;;;46.88;28.15;;;;;;;3.66;82.40;100774.50;3578313;40;20354;-63
2021/12/11 04:39:24;;;;;;;46.28;29.90;;;;;;;3.67;82.25;100779.75;3578061;40;20044;-63
2021/12/11 04:42:00;;;;;;;67.28;39.35;;;;;;;3.68;82.63;100778.88;3577578;40;20051;-63
2021/12/11 04:44:36;;;;;;;52.50;32.03;;;;;;;3.71;82.70;100785.84;3580484;40;20086;-62
2021/12/11 04:47:15;;;;;;;50.88;30.83;;;;;;;3.71;82.23;100786.72;3581592;40;20080;-63
2021/12/11 04:49:49;;;;;;;49.13;30.85;;;;;;;3.74;82.92;100796.38;3576970;40;20626;-63
2021/12/11 04:52:34;;;;;;;46.60;28.35;;;;;;;3.77;82.34;100801.59;3574755;40;20056;-63
2021/12/11 04:55:30;;;;;;;47.15;29.08;;;;;;;3.79;82.02;100807.72;3577597;40;20056;-63
2021/12/11 04:58:21;;;;;;;45.67;28.40;;;;;;;3.68;82.30;100785.97;3577607;40;20402;-63
2021/12/11 05:01:08;;;;;;;46.15;28.67;;;;;;;3.85;82.61;100815.50;3575432;40;20044;-63
2021/12/11 05:09:36;;;;;;;45.90;27.77;;;;;;;3.89;82.48;100825.09;3572818;40;20045;-63
2021/12/11 05:14:40;;;;;;;43.75;27.02;;;;;;;3.94;82.13;100822.28;3577894;40;20056;-63
2021/12/11 05:17:09;;;;;;;44.03;27.02;;;;;;;4.00;82.41;100835.38;3578366;40;20059;-63
2021/12/11 05:19:35;;;;;;;47.72;28.70;;;;;;;3.97;82.00;100835.50;3577064;40;20080;-63
2021/12/11 05:22:04;;;;;;;45.75;29.75;;;;;;;4.03;81.92;100842.38;3574429;40;20057;-63
2021/12/11 05:24:31;;;;;;;44.50;28.75;;;;;;;4.04;82.16;100842.31;3577846;40;20401;-63
2021/12/11 05:26:57;;;;;;;44.30;28.48;;;;;;;3.88;82.04;100820.72;3577077;40;20373;-62
2021/12/11 05:29:23;;;;;;;47.50;29.52;;;;;;;4.10;81.99;100855.41;3578935;40;20044;-63
2021/12/11 05:31:48;;;;;;;46.85;29.15;;;;;;;4.09;82.12;100853.69;3575959;40;20056;-63
2021/12/11 05:34:15;;;;;;;43.15;27.23;;;;;;;4.01;81.67;100842.44;3580354;40;20061;-63
2021/12/11 05:36:41;;;;;;;47.65;28.63;;;;;;;4.13;82.10;100857.09;3575809;40;20067;-62
2021/12/11 05:39:14;;;;;;;47.47;28.90;;;;;;;4.12;82.02;100858.91;3575889;40;20128;-63
2021/12/11 05:41:43;;;;;;;48.33;29.08;;;;;;;4.14;82.35;100864.16;3579337;40;20075;-63
2021/12/11 05:44:11;;;;;;;47.47;28.60;;;;;;;4.15;82.15;100865.88;3575492;40;20062;-62
2021/12/11 05:46:38;;;;;;;47.90;29.35;;;;;;;4.14;82.45;100869.47;3579205;40;20060;-63
2021/12/11 05:49:05;;;;;;;43.88;28.02;;;;;;;4.14;82.45;100874.78;3584580;40;20180;-62
2021/12/11 05:51:38;;;;;;;43.92;27.92;;;;;;;4.12;82.24;100876.63;3579388;40;20064;-62
2021/12/11 05:54:16;;;;;;;48.25;29.20;;;;;;;4.12;82.51;100874.88;3576760;40;20061;-63
2021/12/11 05:56:44;;;;;;;44.03;28.30;;;;;;;4.16;82.62;100886.25;3578477;40;20063;-62
2021/12/11 05:59:16;;;;;;;46.75;28.40;;;;;;;4.05;82.30;100860.00;3576974;40;20055;-62
2021/12/11 06:02:22;;;;;;;44.33;28.48;;;;;;;4.16;82.36;100881.81;3577590;40;20058;-62
2021/12/11 06:04:52;;;;;;;43.03;27.67;;;;;;;4.16;82.80;100878.28;3580139;40;20125;-63
2021/12/11 06:07:23;;;;;;;43.50;27.83;;;;;;;3.93;82.26;100844.47;3582329;40;20087;-63
2021/12/11 06:09:57;;;;;;;39.40;26.42;;;;;;;4.17;82.61;100880.88;3580284;40;20060;-63
2021/12/11 06:12:24;;;;;;;41.45;26.83;;;;;;;4.12;82.51;100887.28;3577304;40;20315;-62
2021/12/11 06:14:52;;;;;;;38.65;26.75;;;;;;;4.14;82.08;100885.44;3580723;40;20127;-63
2021/12/11 06:17:25;;;;;;;42.22;27.52;;;;;;;4.12;82.71;100889.94;3581049;40;20122;-62
2021/12/11 06:19:53;;;;;;;40.35;27.75;;;;;;;4.11;82.50;100902.38;3587552;40;20134;-62
2021/12/11 06:22:30;;;;;;;38.80;26.55;;;;;;;4.11;82.93;100901.50;3577178;40;20153;-62
2021/12/11 06:25:00;;;;;;;40.33;27.15;;;;;;;3.88;82.71;100868.56;3578808;40;20096;-63
2021/12/11 06:27:28;;;;;;;39.03;26.73;;;;;;;3.93;82.74;100882.59;3578532;40;20336;-62
2021/12/11 06:29:53;;;;;;;41.30;27.63;;;;;;;4.09;82.89;100920.19;3579065;40;20067;-63
2021/12/11 06:32:22;;;;;;;45.80;30.65;;;;;;;4.12;83.10;100925.41;3583801;40;20053;-62
2021/12/11 06:34:48;;;;;;;44.00;29.67;;;;;;;4.14;83.44;100923.53;3578484;40;20041;-63
2021/12/11 06:37:15;;;;;;;42.20;29.08;;;;;;;4.18;83.15;100925.16;3579540;40;20055;-63
2021/12/11 06:39:42;;;;;;;44.75;30.73;;;;;;;4.21;83.57;100928.66;3578864;40;20121;-62
2021/12/11 06:42:09;;;;;;;50.90;33.03;;;;;;;4.10;83.76;100908.63;3582256;40;20050;-63
2021/12/11 06:44:37;;;;;;;54.17;34.70;;;;;;;4.28;84.05;100941.72;3577938;40;20297;-62
2021/12/11 06:47:10;;;;;;;49.42;33.65;;;;;;;4.32;84.23;100948.66;3575583;40;20048;-63
2021/12/11 06:49:39;;;;;;;53.90;35.15;;;;;;;4.37;84.08;100952.03;3580229;40;20087;-62
2021/12/11 06:52:19;;;;;;;57.78;37.05;;;;;;;4.40;84.43;100957.25;3579473;40;20306;-63
2021/12/11 06:54:45;;;;;;;55.78;36.65;;;;;;;4.11;84.45;100896.19;3575604;40;20383;-63
2021/12/11 06:57:11;;;;;;;56.33;38.33;;;;;;;4.48;84.36;100964.13;3580328;40;20055;-63
2021/12/11 06:59:37;;;;;;;54.67;38.20;;;;;;;4.51;84.48;100961.34;3577169;40;20060;-63
2021/12/11 07:02:05;;;;;;;58.00;38.78;;;;;;;4.48;84.27;100950.81;3579081;40;20062;-62
2021/12/11 07:04:30;;;;;;;56.15;38.17;;;;;;;4.51;83.70;100956.03;3575833;40;20060;-63
2021/12/11 07:06:56;;;;;;;57.67;38.35;;;;;;;4.62;84.12;100972.47;3578379;40;20063;-62
2021/12/11 07:09:26;;;;;;;56.80;39.03;;;;;;;4.62;83.59;100976.00;3579065;40;20108;-63
2021/12/11 07:11:56;;;;;;;54.33;38.17;;;;;;;4.67;83.66;100969.69;3578740;40;20391;-63
2021/12/11 07:14:31;;;;;;;60.70;39.20;;;;;;;4.42;83.78;100938.56;3577776;40;20131;-63
2021/12/11 07:16:59;;;;;;;54.95;39.60;;;;;;;4.35;84.70;100916.63;3576641;40;20311;-62
2021/12/11 07:19:25;;;;;;;54.33;37.28;;;;;;;4.64;84.00;100960.00;3575589;40;20098;-63
2021/12/11 07:21:54;;;;;;;57.08;38.35;;;;;;;4.77;83.70;100987.06;3577121;40;20136;-63
2021/12/11 07:24:30;;;;;;;52.47;36.83;;;;;;;4.78;83.69;100988.78;3580438;40;20043;-63
2021/12/11 07:26:57;;;;;;;53.53;38.45;;;;;;;4.79;83.68;100991.41;3580433;40;20368;-62
2021/12/11 07:29:23;;;;;;;55.80;37.67;;;;;;;4.81;83.81;101007.31;3576392;40;20053;-62
2021/12/11 07:31:51;;;;;;;52.08;36.13;;;;;;;4.82;83.50;101012.63;3577491;40;20329;-63
2021/12/11 07:34:19;;;;;;;50.85;34.42;;;;;;;4.85;83.53;101019.59;3576489;40;20048;-63
2021/12/11 07:36:46;;;;;;;49.38;33.90;;;;;;;4.87;83.80;101015.09;3578387;40;20053;-63
2021/12/11 07:39:16;;;;;;;49.13;33.83;;;;;;;4.93;83.87;101019.34;3575779;40;20059;-62
2021/12/11 07:41:43;;;;;;;49.08;33.67;;;;;;;4.89;83.64;101014.13;3577334;40;20066;-62
2021/12/11 07:44:09;;;;;;;52.63;32.88;;;;;;;5.00;83.34;101028.84;3576771;40;20100;-63
2021/12/11 07:46:35;;;;;;;43.38;31.10;;;;;;;4.97;82.86;101026.31;3578684;40;20056;-63
2021/12/11 07:49:03;;;;;;;45.30;29.45;;;;;;;5.04;83.07;101038.47;3579408;40;20049;-62
2021/12/11 07:51:32;;;;;;;40.97;28.08;;;;;;;5.04;82.99;101035.81;3578119;40;20134;-62
2021/12/11 07:53:59;;;;;;;34.38;24.77;;;;;;;5.05;83.31;101032.25;3575098;40;20380;-62
2021/12/11 07:56:26;;;;;;;39.00;24.13;;;;;;;5.15;83.07;101046.97;3577593;40;20044;-63
2021/12/11 07:58:57;;;;;;;38.30;23.38;;;;;;;5.19;82.55;101053.91;3575839;40;20061;-62
2021/12/11 08:01:23;;;;;;;33.47;23.02;;;;;;;5.23;83.33;101060.91;3577893;40;20053;-62
2021/12/11 08:03:49;;;;;;;36.42;20.58;;;;;;;5.28;82.70;101064.25;3581521;40;20056;-62
2021/12/11 08:06:15;;;;;;;34.78;21.30;;;;;;;5.27;82.81;101057.19;3578032;40;20051;-62
2021/12/11 08:08:44;;;;;;;33.97;19.48;;;;;;;5.34;82.77;101064.03;3577156;40;20068;-63
2021/12/11 08:11:19;;;;;;;36.75;20.10;;;;;;;5.38;82.95;101066.59;3575258;40;20331;-62
2021/12/11 08:13:49;;;;;;;29.85;17.20;;;;;;;5.39;83.00;101073.63;3578370;40;20093;-64
2021/12/11 08:16:22;;;;;;;28.50;15.68;;;;;;;5.41;83.17;101079.81;3577763;40;20391;-64
2021/12/11 08:18:50;;;;;;;30.97;15.03;;;;;;;5.44;83.25;101082.34;3579106;40;20127;-64
2021/12/11 08:21:16;;;;;;;26.30;13.98;;;;;;;5.40;82.87;101070.06;3576276;40;20350;-64
2021/12/11 08:23:44;;;;;;;25.60;13.35;;;;;;;5.47;83.06;101088.44;3578795;40;20067;-64
2021/12/11 08:26:15;;;;;;;26.48;13.52;;;;;;;5.53;82.98;101090.03;3575017;40;20052;-64
2021/12/11 08:28:42;;;;;;;29.73;12.70;;;;;;;5.53;82.84;101096.22;3579435;40;20591;-64
2021/12/11 08:31:09;;;;;;;25.58;12.68;;;;;;;5.38;82.63;101077.25;3577851;40;20120;-64
2021/12/11 08:33:35;;;;;;;26.77;10.85;;;;;;;5.54;82.95;101110.41;3579853;40;20056;-64
2021/12/11 08:36:01;;;;;;;23.52;10.20;;;;;;;5.51;83.10;101102.53;3573994;40;20146;-64
2021/12/11 08:38:28;;;;;;;20.83;9.32;;;;;;;5.61;83.05;101124.38;3575726;40;20320;-64
2021/12/11 08:41:00;;;;;;;25.77;9.80;;;;;;;5.62;83.10;101126.16;3575916;40;20056;-64
2021/12/11 08:43:26;;;;;;;19.08;7.55;;;;;;;5.66;82.76;101120.63;3577459;40;20417;-63
2021/12/11 08:46:27;;;;;;;23.15;7.63;;;;;;;5.72;83.05;101123.09;3577478;40;20438;-65
2021/12/11 08:48:49;;;;;;;20.58;7.07;;;;;;;5.78;82.97;101132.66;3580969;40;20053;-64
2021/12/11 08:51:39;;;;;;;27.90;8.43;;;;;;;5.81;82.62;101138.75;3576716;40;20306;-63
2021/12/11 08:54:08;;;;;;;19.38;6.05;;;;;;;5.86;82.48;101135.03;3574844;40;20095;-64
2021/12/11 08:56:36;;;;;;;23.85;6.97;;;;;;;5.87;83.17;101140.31;3579133;40;20059;-64
2021/12/11 08:59:07;;;;;;;20.42;6.38;;;;;;;5.95;82.79;101145.41;3574901;40;20048;-64
2021/12/11 09:02:02;;;;;;;17.67;5.85;;;;;;;5.99;81.92;101145.25;3576364;40;20410;-64
2021/12/11 09:04:43;;;;;;;16.33;5.63;;;;;;;6.04;82.58;101155.72;3576203;40;20102;-64
2021/12/11 09:07:19;;;;;;;17.52;4.80;;;;;;;6.08;81.95;101167.16;3577799;40;20460;-66
2021/12/11 09:09:59;;;;;;;22.48;4.82;;;;;;;6.14;81.92;101167.78;3577469;40;20131;-64
2021/12/11 09:12:33;;;;;;;22.77;5.72;;;;;;;6.20;82.11;101178.22;3577958;40;20055;-64
2021/12/11 09:15:10;;;;;;;19.48;5.05;;;;;;;6.23;82.20;101172.78;3577650;40;20053;-64
2021/12/11 09:17:45;;;;;;;24.15;5.28;;;;;;;6.32;81.40;101190.25;3574742;40;20060;-64
2021/12/11 09:20:27;;;;;;;19.33;4.90;;;;;;;6.38;81.97;101198.03;3576133;40;20041;-64
2021/12/11 09:23:29;;;;;;;18.92;4.97;;;;;;;6.48;81.72;101203.88;3574957;40;20118;-63
2021/12/11 09:26:08;;;;;;;16.40;4.30;;;;;;;6.62;81.37;101206.00;3576764;40;20040;-64
2021/12/11 09:28:43;;;;;;;14.68;4.22;;;;;;;6.67;81.84;101204.91;3574254;40;20051;-63
2021/12/11 09:31:15;;;;;;;19.35;4.30;;;;;;;6.86;81.61;101220.19;3575572;40;20358;-63
2021/12/11 09:33:57;;;;;;;19.60;4.10;;;;;;;6.87;80.81;101211.25;3578952;40;20066;-63
2021/12/11 09:36:34;;;;;;;16.42;3.55;;;;;;;7.12;80.42;101227.16;3577578;40;20064;-63
2021/12/11 09:39:21;;;;;;;16.55;4.10;;;;;;;7.29;79.90;101240.69;3582846;40;20085;-64
2021/12/11 09:41:46;;;;;;;17.38;4.10;;;;;;;7.46;79.93;101241.81;3580584;40;20092;-64
2021/12/11 09:44:35;;;;;;;18.70;3.45;;;;;;;7.51;79.41;101242.47;3577063;40;20055;-64
2021/12/11 09:47:16;;;;;;;13.43;5.53;;;;;;;7.65;78.57;101254.31;3575165;40;20064;-64
2021/12/11 09:49:53;;;;;;;21.52;7.82;;;;;;;7.71;78.20;101263.91;3577584;40;20082;-64
2021/12/11 09:52:25;;;;;;;21.48;6.07;;;;;;;7.74;77.87;101268.22;3574897;40;20053;-64
2021/12/11 09:55:06;;;;;;;22.63;7.40;;;;;;;7.77;77.78;101270.78;3573903;40;20326;-64
2021/12/11 09:57:39;;;;;;;28.20;11.07;;;;;;;7.81;77.71;101275.94;3575379;40;20052;-64
2021/12/11 10:00:29;;;;;;;17.27;7.75;;;;;;;7.83;78.17;101275.88;3576481;40;20595;-64
2021/12/11 10:02:56;;;;;;;29.30;12.63;;;;;;;7.78;77.31;101268.03;3573906;40;20360;-64
2021/12/11 10:05:37;;;;;;;15.38;6.53;;;;;;;7.83;77.96;101278.53;3579161;40;20052;-64
2021/12/11 10:11:01;;;;;;;21.42;9.15;;;;;;;7.84;78.12;101288.34;3577487;40;20053;-64
2021/12/11 10:13:28;;;;;;;28.42;10.82;;;;;;;7.85;77.91;101295.41;3575753;40;20049;-64
2021/12/11 10:15:54;;;;;;;21.00;8.10;;;;;;;7.83;77.52;101291.91;3577763;40;20058;-63
2021/12/11 10:18:25;;;;;;;34.65;15.38;;;;;;;7.81;77.80;101296.50;3579679;40;20052;-64
2021/12/11 10:21:00;;;;;;;69.97;32.45;;;;;;;7.82;77.55;101304.44;3586286;40;20084;-64
2021/12/11 10:23:32;;;;;;;58.25;29.27;;;;;;;7.81;77.89;101307.19;3580239;40;20087;-64
2021/12/11 10:26:03;;;;;;;69.25;31.80;;;;;;;7.88;77.99;101308.66;3581582;40;20092;-64
2021/12/11 10:28:30;;;;;;;46.15;21.30;;;;;;;7.92;77.56;101310.25;3579965;40;20057;-63
2021/12/11 10:31:23;;;;;;;29.88;10.60;;;;;;;7.97;76.66;101313.63;3578041;40;20126;-63
2021/12/11 10:33:50;;;;;;;21.05;6.05;;;;;;;8.12;76.63;101318.31;3577494;40;20063;-64
2021/12/11 10:36:25;;;;;;;20.33;5.13;;;;;;;8.08;76.42;101286.38;3580087;40;20040;-64
2021/12/11 10:38:53;;;;;;;18.58;5.20;;;;;;;8.34;75.64;101304.84;3577131;40;20057;-64
2021/12/11 10:41:19;;;;;;;21.58;5.82;;;;;;;8.57;74.67;101311.00;3576776;40;20049;-64
2021/12/11 10:44:00;;;;;;;13.88;5.72;;;;;;;8.78;73.67;101331.44;3584006;40;20057;-64
2021/12/11 10:46:32;;;;;;;14.18;5.32;;;;;;;8.92;73.14;101335.31;3580504;40;20049;-64
2021/12/11 10:49:00;;;;;;;13.85;4.47;;;;;;;8.92;72.99;101341.53;3581749;40;20094;-64
2021/12/11 10:51:34;;;;;;;14.75;4.03;;;;;;;8.97;72.45;101341.31;3578536;40;20052;-64
2021/12/11 10:54:00;;;;;;;16.67;4.30;;;;;;;9.13;71.94;101338.78;3577184;40;20068;-64
2021/12/11 10:56:28;;;;;;;18.52;4.78;;;;;;;9.26;71.93;101347.97;3576923;40;20051;-65
2021/12/11 10:59:02;;;;;;;15.65;4.47;;;;;;;9.27;71.82;101352.41;3575067;40;20051;-63
2021/12/11 11:01:35;;;;;;;14.90;4.68;;;;;;;9.20;71.76;101361.69;3579091;40;20063;-63
2021/12/11 11:04:10;;;;;;;17.08;4.10;;;;;;;8.95;71.98;101341.41;3578172;40;20052;-64
2021/12/11 11:06:37;;;;;;;15.73;4.40;;;;;;;8.96;72.75;101358.34;3577007;40;20153;-64
2021/12/11 11:09:09;;;;;;;14.15;4.55;;;;;;;8.98;73.49;101369.88;3577084;40;20048;-64
2021/12/11 11:11:36;;;;;;;17.30;4.57;;;;;;;8.85;73.48;101407.13;3581862;40;20072;-64
2021/12/11 11:14:07;;;;;;;11.80;4.00;;;;;;;8.80;73.77;101376.94;3576881;40;20044;-64
2021/12/11 11:16:36;;;;;;;13.48;3.47;;;;;;;8.76;74.06;101389.63;3574656;40;20601;-64
2021/12/11 11:19:03;;;;;;;17.55;4.45;;;;;;;8.74;75.36;101391.50;3578940;40;20395;-64
2021/12/11 11:21:40;;;;;;;10.55;3.42;;;;;;;8.68;74.68;101397.13;3577355;40;20256;-65
2021/12/11 11:24:08;;;;;;;12.90;3.80;;;;;;;8.64;75.23;101392.00;3581199;40;20097;-64
2021/12/11 11:26:40;;;;;;;15.80;3.78;;;;;;;8.58;74.89;101402.03;3579661;40;20048;-64
2021/12/11 11:29:11;;;;;;;12.57;3.70;;;;;;;8.57;75.30;101405.66;3579890;40;20052;-64
2021/12/11 11:31:41;;;;;;;15.05;4.07;;;;;;;8.54;75.09;101405.78;3579141;40;20060;-64
2021/12/11 11:34:15;;;;;;;13.98;3.92;;;;;;;8.50;75.59;101403.28;3578505;40;20052;-64
2021/12/11 11:36:42;;;;;;;19.40;3.83;;;;;;;8.53;75.41;101404.06;3580138;40;20131;-64
2021/12/11 11:39:13;;;;;;;15.23;3.60;;;;;;;8.58;75.16;101410.06;3578970;40;20415;-64
2021/12/11 11:41:45;;;;;;;15.50;3.65;;;;;;;8.55;74.16;101417.38;3577697;40;20117;-64
2021/12/11 11:44:14;;;;;;;19.13;4.07;;;;;;;8.51;75.17;101416.66;3577947;40;20092;-63
2021/12/11 11:46:41;;;;;;;14.65;3.85;;;;;;;8.57;75.30;101421.75;3579241;40;20064;-63
2021/12/11 11:49:12;;;;;;;14.02;3.33;;;;;;;8.63;75.11;101427.75;3580368;40;20351;-64
2021/12/11 11:51:54;;;;;;;12.48;3.38;;;;;;;8.58;74.87;101420.78;3579269;40;20052;-63
2021/12/11 11:54:25;;;;;;;13.65;3.38;;;;;;;8.57;75.16;101429.78;3578296;40;20044;-64
2021/12/11 11:57:09;;;;;;;13.95;3.47;;;;;;;8.53;75.09;101433.53;3577252;40;20048;-64
2021/12/11 11:59:36;;;;;;;16.33;3.80;;;;;;;8.55;75.28;101428.97;3577946;40;20142;-64
2021/12/11 12:02:11;;;;;;;15.73;3.83;;;;;;;8.60;75.74;101440.38;3578263;40;20084;-64